sensor_id;sensor_type;location;lat;lon;timestamp;P1;durP1;ratioP1;P2;durP2;ratioP2
80340;SDS011;69656;44.498;0.166;2023-12-22T00:02:09;2.33;;;0.90;;
80340;SDS011;69656;44.498;0.166;2023-12-22T00:07:43;1.50;;;0.63;;
80340;SDS011;69656;44.498;0.166;2023-12-22T00:13:15;9.00;;;1.47;;
80340;SDS011;69656;44.498;0.166;2023-12-22T00:18:49;1.57;;;1.10;;
80340;SDS011;69656;44.498;0.166;2023-12-22T00:24:22;9.60;;;1.40;;
80340;SDS011;69656;44.498;0.166;2023-12-22T00:29:54;4.33;;;1.17;;
80340;SDS011;69656;44.498;0.166;2023-12-22T00:35:26;4.87;;;1.27;;
80340;SDS011;69656;44.498;0.166;2023-12-22T00:40:58;0.77;;;0.50;;
80340;SDS011;69656;44.498;0.166;2023-12-22T00:46:32;4.67;;;1.10;;
80340;SDS011;69656;44.498;0.166;2023-12-22T00:52:04;3.50;;;1.10;;
80340;SDS011;69656;44.498;0.166;2023-12-22T00:57:37;2.97;;;0.90;;
80340;SDS011;69656;44.498;0.166;2023-12-22T01:03:11;3.37;;;1.10;;
80340;SDS011;69656;44.498;0.166;2023-12-22T01:08:44;3.27;;;0.70;;
80340;SDS011;69656;44.498;0.166;2023-12-22T01:14:18;1.80;;;0.33;;
80340;SDS011;69656;44.498;0.166;2023-12-22T01:19:49;0.67;;;0.50;;
80340;SDS011;69656;44.498;0.166;2023-12-22T01:25:22;0.67;;;0.30;;
80340;SDS011;69656;44.498;0.166;2023-12-22T01:30:56;0.80;;;0.40;;
80340;SDS011;69656;44.498;0.166;2023-12-22T01:36:29;1.00;;;0.40;;
80340;SDS011;69656;44.498;0.166;2023-12-22T01:42:01;4.03;;;0.50;;
80340;SDS011;69656;44.498;0.166;2023-12-22T01:47:33;5.00;;;0.67;;
80340;SDS011;69656;44.498;0.166;2023-12-22T01:53:07;1.60;;;0.40;;
80340;SDS011;69656;44.498;0.166;2023-12-22T01:58:40;0.30;;;0.30;;
80340;SDS011;69656;44.498;0.166;2023-12-22T02:04:13;1.80;;;0.40;;
80340;SDS011;69656;44.498;0.166;2023-12-22T02:09:46;6.17;;;0.70;;
80340;SDS011;69656;44.498;0.166;2023-12-22T02:15:19;2.10;;;0.40;;
80340;SDS011;69656;44.498;0.166;2023-12-22T02:20:52;3.53;;;0.27;;
80340;SDS011;69656;44.498;0.166;2023-12-22T02:26:26;0.67;;;0.60;;
80340;SDS011;69656;44.498;0.166;2023-12-22T02:31:57;5.80;;;0.60;;
80340;SDS011;69656;44.498;0.166;2023-12-22T02:37:30;0.13;;;0.07;;
80340;SDS011;69656;44.498;0.166;2023-12-22T02:43:04;4.40;;;0.90;;
80340;SDS011;69656;44.498;0.166;2023-12-22T02:48:37;8.53;;;0.80;;
80340;SDS011;69656;44.498;0.166;2023-12-22T02:54:10;6.50;;;1.23;;
80340;SDS011;69656;44.498;0.166;2023-12-22T02:59:41;3.33;;;0.93;;
80340;SDS011;69656;44.498;0.166;2023-12-22T03:05:15;6.70;;;0.67;;
80340;SDS011;69656;44.498;0.166;2023-12-22T03:16:21;5.50;;;0.93;;
80340;SDS011;69656;44.498;0.166;2023-12-22T03:21:52;7.00;;;0.63;;
80340;SDS011;69656;44.498;0.166;2023-12-22T03:27:24;2.17;;;0.70;;
80340;SDS011;69656;44.498;0.166;2023-12-22T03:32:57;11.90;;;1.37;;
80340;SDS011;69656;44.498;0.166;2023-12-22T03:38:29;9.23;;;1.53;;
80340;SDS011;69656;44.498;0.166;2023-12-22T03:44:02;9.50;;;1.73;;
80340;SDS011;69656;44.498;0.166;2023-12-22T03:49:36;2.63;;;0.87;;
80340;SDS011;69656;44.498;0.166;2023-12-22T03:55:08;1.70;;;0.50;;
80340;SDS011;69656;44.498;0.166;2023-12-22T04:00:41;16.17;;;1.33;;
80340;SDS011;69656;44.498;0.166;2023-12-22T04:06:14;8.13;;;0.93;;
80340;SDS011;69656;44.498;0.166;2023-12-22T04:11:49;7.80;;;0.80;;
80340;SDS011;69656;44.498;0.166;2023-12-22T04:17:21;4.73;;;1.03;;
80340;SDS011;69656;44.498;0.166;2023-12-22T04:22:54;8.97;;;1.13;;
80340;SDS011;69656;44.498;0.166;2023-12-22T04:28:27;8.60;;;1.03;;
80340;SDS011;69656;44.498;0.166;2023-12-22T04:34:00;9.90;;;0.53;;
80340;SDS011;69656;44.498;0.166;2023-12-22T04:39:33;6.03;;;0.60;;
80340;SDS011;69656;44.498;0.166;2023-12-22T04:45:05;4.27;;;0.80;;
80340;SDS011;69656;44.498;0.166;2023-12-22T04:50:38;12.20;;;1.30;;
80340;SDS011;69656;44.498;0.166;2023-12-22T04:56:13;2.93;;;0.60;;
80340;SDS011;69656;44.498;0.166;2023-12-22T05:01:45;2.60;;;0.30;;
80340;SDS011;69656;44.498;0.166;2023-12-22T05:07:17;1.70;;;0.50;;
80340;SDS011;69656;44.498;0.166;2023-12-22T05:12:50;9.63;;;0.60;;
80340;SDS011;69656;44.498;0.166;2023-12-22T05:18:23;6.40;;;0.97;;
80340;SDS011;69656;44.498;0.166;2023-12-22T05:23:55;4.40;;;1.27;;
80340;SDS011;69656;44.498;0.166;2023-12-22T05:29:28;11.00;;;1.43;;
80340;SDS011;69656;44.498;0.166;2023-12-22T05:35:01;7.00;;;0.90;;
80340;SDS011;69656;44.498;0.166;2023-12-22T05:40:35;6.37;;;0.97;;
80340;SDS011;69656;44.498;0.166;2023-12-22T05:46:07;10.07;;;1.20;;
80340;SDS011;69656;44.498;0.166;2023-12-22T05:51:39;13.07;;;1.30;;
80340;SDS011;69656;44.498;0.166;2023-12-22T05:57:11;11.50;;;0.97;;
80340;SDS011;69656;44.498;0.166;2023-12-22T06:02:44;13.23;;;1.20;;
80340;SDS011;69656;44.498;0.166;2023-12-22T06:08:17;8.40;;;0.93;;
80340;SDS011;69656;44.498;0.166;2023-12-22T06:13:50;12.37;;;1.60;;
80340;SDS011;69656;44.498;0.166;2023-12-22T06:19:23;10.33;;;1.67;;
80340;SDS011;69656;44.498;0.166;2023-12-22T06:24:56;13.03;;;1.10;;
80340;SDS011;69656;44.498;0.166;2023-12-22T06:30:28;9.27;;;1.10;;
80340;SDS011;69656;44.498;0.166;2023-12-22T06:36:00;1.37;;;0.60;;
80340;SDS011;69656;44.498;0.166;2023-12-22T06:41:32;5.97;;;1.00;;
80340;SDS011;69656;44.498;0.166;2023-12-22T06:47:08;11.73;;;1.23;;
80340;SDS011;69656;44.498;0.166;2023-12-22T06:52:38;7.93;;;1.37;;
80340;SDS011;69656;44.498;0.166;2023-12-22T06:58:11;9.33;;;1.23;;
80340;SDS011;69656;44.498;0.166;2023-12-22T07:03:43;10.07;;;1.17;;
80340;SDS011;69656;44.498;0.166;2023-12-22T07:14:48;12.93;;;1.87;;
80340;SDS011;69656;44.498;0.166;2023-12-22T07:20:21;0.60;;;0.60;;
80340;SDS011;69656;44.498;0.166;2023-12-22T07:25:54;2.87;;;1.70;;
80340;SDS011;69656;44.498;0.166;2023-12-22T07:31:26;9.83;;;3.60;;
80340;SDS011;69656;44.498;0.166;2023-12-22T07:36:58;6.13;;;2.00;;
80340;SDS011;69656;44.498;0.166;2023-12-22T07:42:31;4.50;;;1.10;;
80340;SDS011;69656;44.498;0.166;2023-12-22T07:48:04;2.20;;;1.00;;
80340;SDS011;69656;44.498;0.166;2023-12-22T07:53:36;3.70;;;0.83;;
80340;SDS011;69656;44.498;0.166;2023-12-22T07:59:10;2.77;;;1.10;;
80340;SDS011;69656;44.498;0.166;2023-12-22T08:04:44;2.57;;;1.40;;
80340;SDS011;69656;44.498;0.166;2023-12-22T08:10:16;2.73;;;1.30;;
80340;SDS011;69656;44.498;0.166;2023-12-22T08:15:49;4.13;;;1.10;;
80340;SDS011;69656;44.498;0.166;2023-12-22T08:21:21;6.20;;;1.23;;
80340;SDS011;69656;44.498;0.166;2023-12-22T08:26:55;4.87;;;0.93;;
80340;SDS011;69656;44.498;0.166;2023-12-22T08:32:29;1.67;;;0.90;;
80340;SDS011;69656;44.498;0.166;2023-12-22T08:38:02;2.20;;;0.80;;
80340;SDS011;69656;44.498;0.166;2023-12-22T08:43:34;1.73;;;1.10;;
80340;SDS011;69656;44.498;0.166;2023-12-22T08:49:07;1.50;;;0.90;;
80340;SDS011;69656;44.498;0.166;2023-12-22T08:54:39;1.63;;;0.80;;
80340;SDS011;69656;44.498;0.166;2023-12-22T09:00:12;3.07;;;0.97;;
80340;SDS011;69656;44.498;0.166;2023-12-22T09:05:45;5.00;;;1.03;;
80340;SDS011;69656;44.498;0.166;2023-12-22T09:11:20;7.70;;;1.10;;
80340;SDS011;69656;44.498;0.166;2023-12-22T09:16:53;2.83;;;0.70;;
80340;SDS011;69656;44.498;0.166;2023-12-22T09:22:25;0.93;;;0.67;;
80340;SDS011;69656;44.498;0.166;2023-12-22T09:27:57;0.60;;;0.60;;
80340;SDS011;69656;44.498;0.166;2023-12-22T09:33:29;1.43;;;0.80;;
80340;SDS011;69656;44.498;0.166;2023-12-22T09:39:02;5.23;;;1.10;;
80340;SDS011;69656;44.498;0.166;2023-12-22T09:44:36;4.70;;;1.43;;
80340;SDS011;69656;44.498;0.166;2023-12-22T09:50:09;2.57;;;1.20;;
80340;SDS011;69656;44.498;0.166;2023-12-22T09:55:43;12.03;;;2.77;;
80340;SDS011;69656;44.498;0.166;2023-12-22T10:01:15;2.43;;;0.60;;
80340;SDS011;69656;44.498;0.166;2023-12-22T10:06:48;1.07;;;0.63;;
80340;SDS011;69656;44.498;0.166;2023-12-22T10:12:21;0.60;;;0.57;;
80340;SDS011;69656;44.498;0.166;2023-12-22T10:17:54;3.27;;;0.67;;
80340;SDS011;69656;44.498;0.166;2023-12-22T10:23:27;1.53;;;0.83;;
80340;SDS011;69656;44.498;0.166;2023-12-22T10:28:59;1.50;;;1.00;;
80340;SDS011;69656;44.498;0.166;2023-12-22T10:34:31;1.50;;;0.50;;
80340;SDS011;69656;44.498;0.166;2023-12-22T10:40:05;1.20;;;0.77;;
80340;SDS011;69656;44.498;0.166;2023-12-22T10:45:40;0.70;;;0.47;;
80340;SDS011;69656;44.498;0.166;2023-12-22T10:51:11;1.70;;;0.57;;
80340;SDS011;69656;44.498;0.166;2023-12-22T10:56:44;0.30;;;0.30;;
80340;SDS011;69656;44.498;0.166;2023-12-22T11:02:17;3.20;;;0.27;;
80340;SDS011;69656;44.498;0.166;2023-12-22T11:07:50;1.17;;;0.50;;
80340;SDS011;69656;44.498;0.166;2023-12-22T11:13:22;0.40;;;0.30;;
80340;SDS011;69656;44.498;0.166;2023-12-22T11:18:55;0.30;;;0.30;;
80340;SDS011;69656;44.498;0.166;2023-12-22T11:24:28;0.83;;;0.43;;
80340;SDS011;69656;44.498;0.166;2023-12-22T11:30:00;0.80;;;0.30;;
80340;SDS011;69656;44.498;0.166;2023-12-22T11:35:33;2.40;;;0.90;;
80340;SDS011;69656;44.498;0.166;2023-12-22T11:41:11;2.20;;;0.40;;
80340;SDS011;69656;44.498;0.166;2023-12-22T11:46:39;2.47;;;0.67;;
80340;SDS011;69656;44.498;0.166;2023-12-22T11:52:12;3.70;;;1.10;;
80340;SDS011;69656;44.498;0.166;2023-12-22T11:57:45;4.03;;;0.87;;
80340;SDS011;69656;44.498;0.166;2023-12-22T12:03:18;1.60;;;0.60;;
80340;SDS011;69656;44.498;0.166;2023-12-22T12:08:50;0.57;;;0.10;;
80340;SDS011;69656;44.498;0.166;2023-12-22T12:14:23;4.30;;;1.80;;
80340;SDS011;69656;44.498;0.166;2023-12-22T12:19:54;2.20;;;0.60;;
80340;SDS011;69656;44.498;0.166;2023-12-22T12:25:28;1.23;;;0.70;;
80340;SDS011;69656;44.498;0.166;2023-12-22T12:31:02;0.40;;;0.40;;
80340;SDS011;69656;44.498;0.166;2023-12-22T12:36:35;0.67;;;0.20;;
80340;SDS011;69656;44.498;0.166;2023-12-22T12:42:07;0.80;;;0.50;;
80340;SDS011;69656;44.498;0.166;2023-12-22T12:47:39;0.27;;;0.20;;
80340;SDS011;69656;44.498;0.166;2023-12-22T12:53:11;1.20;;;0.33;;
80340;SDS011;69656;44.498;0.166;2023-12-22T12:58:43;1.10;;;0.43;;
80340;SDS011;69656;44.498;0.166;2023-12-22T13:04:16;0.53;;;0.23;;
80340;SDS011;69656;44.498;0.166;2023-12-22T13:09:48;1.50;;;0.13;;
80340;SDS011;69656;44.498;0.166;2023-12-22T13:15:20;0.60;;;0.30;;
80340;SDS011;69656;44.498;0.166;2023-12-22T13:20:52;3.33;;;0.27;;
80340;SDS011;69656;44.498;0.166;2023-12-22T13:26:24;0.10;;;0.10;;
80340;SDS011;69656;44.498;0.166;2023-12-22T13:31:58;0.37;;;0.37;;
80340;SDS011;69656;44.498;0.166;2023-12-22T13:37:31;1.73;;;0.10;;
80340;SDS011;69656;44.498;0.166;2023-12-22T13:43:03;0.23;;;0.20;;
80340;SDS011;69656;44.498;0.166;2023-12-22T13:48:35;0.30;;;0.30;;
80340;SDS011;69656;44.498;0.166;2023-12-22T13:54:08;1.27;;;0.30;;
80340;SDS011;69656;44.498;0.166;2023-12-22T13:59:40;0.30;;;0.20;;
80340;SDS011;69656;44.498;0.166;2023-12-22T14:05:13;0.60;;;0.60;;
80340;SDS011;69656;44.498;0.166;2023-12-22T14:10:46;2.70;;;0.27;;
80340;SDS011;69656;44.498;0.166;2023-12-22T14:16:19;1.63;;;0.40;;
80340;SDS011;69656;44.498;0.166;2023-12-22T14:21:51;0.47;;;0.30;;
80340;SDS011;69656;44.498;0.166;2023-12-22T14:27:23;2.13;;;0.40;;
80340;SDS011;69656;44.498;0.166;2023-12-22T14:32:57;3.73;;;0.30;;
80340;SDS011;69656;44.498;0.166;2023-12-22T14:38:29;0.27;;;0.27;;
80340;SDS011;69656;44.498;0.166;2023-12-22T14:44:02;6.50;;;0.77;;
80340;SDS011;69656;44.498;0.166;2023-12-22T14:49:34;0.70;;;0.40;;
80340;SDS011;69656;44.498;0.166;2023-12-22T14:55:07;10.30;;;3.07;;
80340;SDS011;69656;44.498;0.166;2023-12-22T15:00:40;6.27;;;1.00;;
80340;SDS011;69656;44.498;0.166;2023-12-22T15:06:12;14.23;;;2.67;;
80340;SDS011;69656;44.498;0.166;2023-12-22T15:11:45;15.30;;;2.50;;
80340;SDS011;69656;44.498;0.166;2023-12-22T15:17:18;9.47;;;2.47;;
80340;SDS011;69656;44.498;0.166;2023-12-22T15:22:50;17.80;;;2.13;;
80340;SDS011;69656;44.498;0.166;2023-12-22T15:28:22;16.83;;;2.00;;
80340;SDS011;69656;44.498;0.166;2023-12-22T15:33:55;11.30;;;1.60;;
80340;SDS011;69656;44.498;0.166;2023-12-22T15:39:28;11.57;;;1.90;;
80340;SDS011;69656;44.498;0.166;2023-12-22T15:45:01;15.00;;;2.47;;
80340;SDS011;69656;44.498;0.166;2023-12-22T15:50:33;14.40;;;2.50;;
80340;SDS011;69656;44.498;0.166;2023-12-22T15:56:07;15.57;;;1.90;;
80340;SDS011;69656;44.498;0.166;2023-12-22T16:01:43;11.40;;;1.60;;
80340;SDS011;69656;44.498;0.166;2023-12-22T16:07:13;17.47;;;2.03;;
80340;SDS011;69656;44.498;0.166;2023-12-22T16:12:45;9.50;;;2.13;;
80340;SDS011;69656;44.498;0.166;2023-12-22T16:18:18;21.07;;;2.73;;
80340;SDS011;69656;44.498;0.166;2023-12-22T16:23:52;15.47;;;1.70;;
80340;SDS011;69656;44.498;0.166;2023-12-22T16:29:25;17.60;;;1.97;;
80340;SDS011;69656;44.498;0.166;2023-12-22T16:34:57;20.53;;;2.27;;
80340;SDS011;69656;44.498;0.166;2023-12-22T16:40:29;20.80;;;2.03;;
80340;SDS011;69656;44.498;0.166;2023-12-22T16:46:02;7.53;;;1.67;;
80340;SDS011;69656;44.498;0.166;2023-12-22T16:51:35;17.50;;;1.60;;
80340;SDS011;69656;44.498;0.166;2023-12-22T16:57:07;14.30;;;2.07;;
80340;SDS011;69656;44.498;0.166;2023-12-22T17:02:41;13.03;;;2.47;;
80340;SDS011;69656;44.498;0.166;2023-12-22T17:08:13;13.90;;;2.17;;
80340;SDS011;69656;44.498;0.166;2023-12-22T17:13:46;11.07;;;2.33;;
80340;SDS011;69656;44.498;0.166;2023-12-22T17:19:18;10.47;;;1.87;;
80340;SDS011;69656;44.498;0.166;2023-12-22T17:24:52;18.73;;;2.43;;
80340;SDS011;69656;44.498;0.166;2023-12-22T17:30:25;20.80;;;2.57;;
80340;SDS011;69656;44.498;0.166;2023-12-22T17:35:57;17.57;;;2.60;;
80340;SDS011;69656;44.498;0.166;2023-12-22T17:41:29;14.70;;;1.97;;
80340;SDS011;69656;44.498;0.166;2023-12-22T17:47:02;17.67;;;3.00;;
80340;SDS011;69656;44.498;0.166;2023-12-22T17:52:35;20.20;;;3.50;;
80340;SDS011;69656;44.498;0.166;2023-12-22T17:58:07;18.17;;;1.87;;
80340;SDS011;69656;44.498;0.166;2023-12-22T18:03:39;14.33;;;1.97;;
80340;SDS011;69656;44.498;0.166;2023-12-22T18:09:12;15.67;;;2.00;;
80340;SDS011;69656;44.498;0.166;2023-12-22T18:14:44;17.57;;;2.07;;
80340;SDS011;69656;44.498;0.166;2023-12-22T18:20:17;11.13;;;1.80;;
80340;SDS011;69656;44.498;0.166;2023-12-22T18:25:50;16.30;;;2.33;;
80340;SDS011;69656;44.498;0.166;2023-12-22T18:31:22;25.40;;;2.97;;
80340;SDS011;69656;44.498;0.166;2023-12-22T18:36:56;25.30;;;3.77;;
80340;SDS011;69656;44.498;0.166;2023-12-22T18:42:29;28.10;;;6.63;;
80340;SDS011;69656;44.498;0.166;2023-12-22T18:48:02;19.73;;;3.33;;
80340;SDS011;69656;44.498;0.166;2023-12-22T18:53:35;22.23;;;3.80;;
80340;SDS011;69656;44.498;0.166;2023-12-22T18:59:08;11.53;;;3.13;;
80340;SDS011;69656;44.498;0.166;2023-12-22T19:04:41;22.17;;;3.00;;
80340;SDS011;69656;44.498;0.166;2023-12-22T19:10:14;28.33;;;3.30;;
80340;SDS011;69656;44.498;0.166;2023-12-22T19:15:47;26.43;;;3.13;;
80340;SDS011;69656;44.498;0.166;2023-12-22T19:21:20;27.60;;;3.67;;
80340;SDS011;69656;44.498;0.166;2023-12-22T19:26:52;24.77;;;3.20;;
80340;SDS011;69656;44.498;0.166;2023-12-22T19:32:25;22.73;;;3.97;;
80340;SDS011;69656;44.498;0.166;2023-12-22T19:37:58;23.10;;;4.37;;
80340;SDS011;69656;44.498;0.166;2023-12-22T19:43:30;19.70;;;2.87;;
80340;SDS011;69656;44.498;0.166;2023-12-22T19:49:05;24.93;;;3.53;;
80340;SDS011;69656;44.498;0.166;2023-12-22T19:54:37;15.43;;;3.03;;
80340;SDS011;69656;44.498;0.166;2023-12-22T20:00:10;5.07;;;1.57;;
80340;SDS011;69656;44.498;0.166;2023-12-22T20:05:41;17.97;;;2.50;;
80340;SDS011;69656;44.498;0.166;2023-12-22T20:11:15;11.53;;;2.33;;
80340;SDS011;69656;44.498;0.166;2023-12-22T20:16:48;27.90;;;3.67;;
80340;SDS011;69656;44.498;0.166;2023-12-22T20:27:54;25.77;;;3.60;;
80340;SDS011;69656;44.498;0.166;2023-12-22T20:33:28;28.57;;;4.13;;
80340;SDS011;69656;44.498;0.166;2023-12-22T20:39:01;29.90;;;3.60;;
80340;SDS011;69656;44.498;0.166;2023-12-22T20:44:34;18.17;;;2.93;;
80340;SDS011;69656;44.498;0.166;2023-12-22T20:50:06;27.57;;;3.30;;
80340;SDS011;69656;44.498;0.166;2023-12-22T20:55:38;36.70;;;4.43;;
80340;SDS011;69656;44.498;0.166;2023-12-22T21:01:11;20.17;;;3.20;;
80340;SDS011;69656;44.498;0.166;2023-12-22T21:06:43;35.60;;;4.57;;
80340;SDS011;69656;44.498;0.166;2023-12-22T21:12:16;15.10;;;3.13;;
80340;SDS011;69656;44.498;0.166;2023-12-22T21:17:49;42.07;;;4.03;;
80340;SDS011;69656;44.498;0.166;2023-12-22T21:23:21;25.97;;;3.73;;
80340;SDS011;69656;44.498;0.166;2023-12-22T21:28:54;9.47;;;3.30;;
80340;SDS011;69656;44.498;0.166;2023-12-22T21:34:26;17.00;;;3.33;;
80340;SDS011;69656;44.498;0.166;2023-12-22T21:39:58;24.50;;;2.73;;
80340;SDS011;69656;44.498;0.166;2023-12-22T21:45:32;15.10;;;2.73;;
80340;SDS011;69656;44.498;0.166;2023-12-22T21:51:04;13.13;;;2.00;;
80340;SDS011;69656;44.498;0.166;2023-12-22T21:56:37;6.70;;;1.77;;
80340;SDS011;69656;44.498;0.166;2023-12-22T22:02:09;20.27;;;1.87;;
80340;SDS011;69656;44.498;0.166;2023-12-22T22:07:42;12.57;;;1.70;;
80340;SDS011;69656;44.498;0.166;2023-12-22T22:13:15;21.03;;;3.33;;
80340;SDS011;69656;44.498;0.166;2023-12-22T22:18:48;21.23;;;3.03;;
80340;SDS011;69656;44.498;0.166;2023-12-22T22:24:22;19.80;;;3.37;;
80340;SDS011;69656;44.498;0.166;2023-12-22T22:29:54;24.00;;;3.67;;
80340;SDS011;69656;44.498;0.166;2023-12-22T22:35:27;24.13;;;3.40;;
80340;SDS011;69656;44.498;0.166;2023-12-22T22:41:00;20.70;;;4.13;;
80340;SDS011;69656;44.498;0.166;2023-12-22T22:46:32;19.97;;;4.23;;
80340;SDS011;69656;44.498;0.166;2023-12-22T22:52:05;22.17;;;4.63;;
80340;SDS011;69656;44.498;0.166;2023-12-22T22:57:38;19.47;;;3.63;;
80340;SDS011;69656;44.498;0.166;2023-12-22T23:03:10;20.93;;;3.53;;
80340;SDS011;69656;44.498;0.166;2023-12-22T23:08:44;23.13;;;4.13;;
80340;SDS011;69656;44.498;0.166;2023-12-22T23:14:17;17.93;;;3.83;;
80340;SDS011;69656;44.498;0.166;2023-12-22T23:19:50;24.43;;;3.83;;
80340;SDS011;69656;44.498;0.166;2023-12-22T23:25:22;21.73;;;2.93;;
80340;SDS011;69656;44.498;0.166;2023-12-22T23:30:55;21.57;;;3.53;;
80340;SDS011;69656;44.498;0.166;2023-12-22T23:36:28;22.97;;;5.17;;
80340;SDS011;69656;44.498;0.166;2023-12-22T23:42:00;25.77;;;4.13;;
80340;SDS011;69656;44.498;0.166;2023-12-22T23:47:33;26.23;;;3.50;;
80340;SDS011;69656;44.498;0.166;2023-12-22T23:53:06;25.43;;;3.57;;
80340;SDS011;69656;44.498;0.166;2023-12-22T23:58:39;28.00;;;4.00;;
